Terminal Aerodrome Forecast
Issued by NWS

Home | Current Version | Previous Version | Text Only | Print | Product List | Glossary On
Versions: 1 2 3 4 5 6 7 8 9 10 11 12 13
127
FTUS42 TJSJ 271134
TAFISX
TAF
TISX 271134Z 2712/2812 06006KT P6SM FEW030
     FM271300 09013KT P6SM SCT025
     FM272200 06010KT P6SM SCT030=

USA.gov is the U.S. government's official web portal to all federal, state and local government web resources and services.